createdAt,value
2018-07-24T00:00:54.238Z,16.43
2018-07-24T00:03:25.092Z,15.90
2018-07-24T00:05:59.886Z,15.63
2018-07-24T00:08:30.026Z,15.90
2018-07-24T00:11:05.028Z,15.33
2018-07-24T00:13:39.401Z,15.10
2018-07-24T00:16:18.410Z,15.67
2018-07-24T00:18:56.936Z,14.63
2018-07-24T00:21:27.642Z,15.07
2018-07-24T00:24:00.784Z,15.23
2018-07-24T00:26:36.796Z,15.70
2018-07-24T00:29:19.335Z,15.60
2018-07-24T00:31:54.420Z,16.87
2018-07-24T00:34:33.636Z,16.03
2018-07-24T00:40:09.374Z,15.70
2018-07-24T00:42:44.632Z,16.80
2018-07-24T00:45:20.177Z,16.73
2018-07-24T00:47:53.572Z,17.07
2018-07-24T00:50:25.502Z,16.70
2018-07-24T00:53:07.129Z,16.63
2018-07-24T00:55:55.176Z,17.17
2018-07-24T00:58:26.924Z,16.40
2018-07-24T01:01:01.110Z,16.40
2018-07-24T01:03:36.874Z,17.33
2018-07-24T01:06:12.403Z,16.80
2018-07-24T01:08:42.090Z,17.73
2018-07-24T01:11:16.578Z,16.70
2018-07-24T01:13:53.264Z,17.00
2018-07-24T01:16:22.476Z,18.80
2018-07-24T01:18:56.926Z,18.67
2018-07-24T01:21:25.664Z,18.47
2018-07-24T01:24:06.067Z,17.37
2018-07-24T01:26:43.752Z,17.87
2018-07-24T01:29:16.109Z,18.23
2018-07-24T01:31:55.991Z,18.23
2018-07-24T01:34:32.880Z,18.30
2018-07-24T01:37:05.844Z,17.57
2018-07-24T01:39:45.340Z,17.37
2018-07-24T01:52:18.734Z,16.87
2018-07-24T01:54:51.601Z,16.73
2018-07-24T02:00:30.222Z,17.63
2018-07-24T02:03:05.982Z,18.10
2018-07-24T02:05:42.290Z,17.63
2018-07-24T02:08:11.714Z,17.73
2018-07-24T02:10:47.135Z,16.60
2018-07-24T02:13:28.986Z,17.03
2018-07-24T02:16:09.067Z,17.60
2018-07-24T02:18:38.684Z,17.37
2018-07-24T02:21:18.710Z,18.20
2018-07-24T02:23:49.258Z,17.83
2018-07-24T02:26:17.657Z,17.70
2018-07-24T02:31:45.820Z,16.80
2018-07-24T02:34:19.737Z,17.33
2018-07-24T02:37:06.799Z,17.47
2018-07-24T02:45:25.681Z,17.33
2018-07-24T02:48:08.093Z,17.07
2018-07-24T02:50:41.935Z,17.37
2018-07-24T02:56:04.892Z,17.13
2018-07-24T02:58:37.685Z,17.73
2018-07-24T03:01:07.827Z,17.87
2018-07-24T03:03:49.929Z,16.57
2018-07-24T03:06:24.209Z,17.67
2018-07-24T03:08:52.681Z,17.13
2018-07-24T03:11:23.295Z,17.80
2018-07-24T03:13:57.081Z,16.83
2018-07-24T03:16:33.321Z,16.83
2018-07-24T03:19:07.765Z,17.50
2018-07-24T03:21:55.093Z,17.43
2018-07-24T03:24:34.571Z,17.17
2018-07-24T03:27:11.201Z,17.17
2018-07-24T03:29:49.689Z,17.47
2018-07-24T03:32:22.811Z,17.47
2018-07-24T03:35:02.180Z,16.63
2018-07-24T03:37:42.879Z,16.93
2018-07-24T03:40:24.412Z,17.40
2018-07-24T03:42:58.681Z,16.47
2018-07-24T03:54:19.103Z,16.33
2018-07-24T03:56:54.597Z,16.10
2018-07-24T03:59:29.268Z,16.73
2018-07-24T04:02:12.699Z,16.67
2018-07-24T04:04:54.281Z,16.67
2018-07-24T04:07:25.321Z,16.90
2018-07-24T04:09:57.251Z,17.20
2018-07-24T04:12:31.863Z,17.20
2018-07-24T04:15:01.756Z,17.33
2018-07-24T04:17:37.596Z,17.20
2018-07-24T04:23:05.864Z,16.53
2018-07-24T04:31:35.733Z,17.60
2018-07-24T04:34:11.021Z,16.70
2018-07-24T04:36:52.475Z,17.33
2018-07-24T04:45:26.270Z,18.23
2018-07-24T04:50:52.608Z,20.23
2018-07-24T04:53:25.457Z,20.10
2018-07-24T04:55:55.659Z,20.20
2018-07-24T04:58:25.037Z,19.80
2018-07-24T05:01:06.277Z,19.53
2018-07-24T05:03:47.006Z,20.17
2018-07-24T05:06:28.499Z,19.73
2018-07-24T05:08:57.138Z,21.43
2018-07-24T05:11:28.241Z,24.37
2018-07-24T05:13:58.349Z,25.57
2018-07-24T05:22:20.300Z,26.97
2018-07-24T05:25:06.150Z,27.90
2018-07-24T05:27:48.077Z,28.90
2018-07-24T05:30:25.386Z,29.90
2018-07-24T05:33:00.169Z,30.90
2018-07-24T05:35:29.267Z,34.00
2018-07-24T05:40:50.292Z,33.50
2018-07-24T05:43:24.535Z,33.67
2018-07-24T05:46:02.382Z,33.13
2018-07-24T05:48:38.249Z,32.07
2018-07-24T05:51:06.889Z,33.40
2018-07-24T05:53:41.757Z,31.00
2018-07-24T05:56:11.273Z,29.43
2018-07-24T05:58:41.258Z,31.77
2018-07-24T06:01:10.037Z,31.43
2018-07-24T06:03:57.427Z,32.63
2018-07-24T06:06:32.063Z,32.07
2018-07-24T06:09:12.321Z,30.90
2018-07-24T06:12:06.538Z,30.77
2018-07-24T06:14:37.777Z,30.40
2018-07-24T06:20:42.775Z,28.73
2018-07-24T06:35:54.588Z,28.93
2018-07-24T06:47:07.358Z,29.23
2018-07-24T06:53:46.022Z,29.73
2018-07-24T08:02:16.437Z,29.20
2018-07-24T08:19:28.380Z,24.53
2018-07-24T08:42:22.051Z,23.90
2018-07-24T09:26:57.476Z,13.47
2018-07-24T09:49:38.968Z,9.53
2018-07-24T10:22:12.351Z,9.70
2018-07-24T10:36:32.092Z,10.37
2018-07-24T10:56:59.730Z,10.90
2018-07-24T11:18:08.589Z,10.50
2018-07-24T11:20:43.373Z,10.20
2018-07-24T11:23:15.217Z,9.77
2018-07-24T11:28:45.622Z,11.70
2018-07-24T11:43:07.463Z,11.70
2018-07-24T11:45:58.638Z,10.40
2018-07-24T11:48:40.101Z,13.33
2018-07-24T11:54:10.623Z,10.20
2018-07-24T12:30:31.585Z,11.80
2018-07-24T12:33:12.291Z,11.83
2018-07-24T12:35:49.322Z,11.87
2018-07-24T12:41:34.808Z,12.00
2018-07-24T12:44:17.524Z,11.13
2018-07-24T12:46:52.856Z,11.87
2018-07-24T12:49:40.982Z,11.97
2018-07-24T12:54:59.681Z,12.40
2018-07-24T12:57:28.368Z,11.60
2018-07-24T13:00:00.942Z,11.83
2018-07-24T13:02:31.614Z,11.30
2018-07-24T13:05:01.310Z,11.13
2018-07-24T13:07:32.340Z,11.37
2018-07-24T13:10:02.340Z,11.77
2018-07-24T13:12:32.944Z,11.50
2018-07-24T13:15:04.233Z,11.40
2018-07-24T13:17:32.954Z,11.67
2018-07-24T13:20:03.377Z,11.60
2018-07-24T13:22:32.890Z,11.87
2018-07-24T13:25:08.040Z,11.70
2018-07-24T13:27:56.997Z,11.43
2018-07-24T13:30:45.194Z,11.67
2018-07-24T13:33:19.305Z,11.33
2018-07-24T13:35:51.972Z,11.20
2018-07-24T13:50:19.527Z,11.50
2018-07-24T13:52:54.375Z,11.80
2018-07-24T13:55:25.377Z,11.13
2018-07-24T13:58:09.459Z,11.50
2018-07-24T14:00:39.917Z,11.20
2018-07-24T14:03:38.685Z,11.13
2018-07-24T14:06:20.997Z,10.90
2018-07-24T14:08:54.954Z,12.07
2018-07-24T14:11:26.433Z,10.97
2018-07-24T14:13:56.177Z,11.70
2018-07-24T14:16:24.666Z,11.50
2018-07-24T14:18:53.591Z,11.13
2018-07-24T14:21:23.149Z,10.97
2018-07-24T14:24:01.402Z,11.07
2018-07-24T14:26:37.441Z,11.70
2018-07-24T14:29:16.937Z,11.13
2018-07-24T14:31:54.394Z,10.37
2018-07-24T14:34:27.268Z,11.10
2018-07-24T14:42:18.682Z,11.53
2018-07-24T14:44:52.720Z,11.20
2018-07-24T14:47:20.958Z,11.40
2018-07-24T14:49:50.728Z,11.07
2018-07-24T14:52:27.718Z,11.20
2018-07-24T14:54:57.217Z,12.00
2018-07-24T14:57:35.792Z,11.53
2018-07-24T15:00:09.240Z,11.80
2018-07-24T15:02:41.886Z,11.40
2018-07-24T15:05:15.341Z,11.50
2018-07-24T15:08:00.110Z,10.73
2018-07-24T15:10:30.883Z,11.10
2018-07-24T15:13:00.944Z,11.43
2018-07-24T15:15:34.032Z,10.87
2018-07-24T15:18:09.538Z,11.80
2018-07-24T15:20:43.145Z,11.77
2018-07-24T15:23:13.703Z,10.90
2018-07-24T15:25:52.149Z,11.87
2018-07-24T15:28:26.149Z,12.60
2018-07-24T15:30:58.223Z,12.30
2018-07-24T15:33:28.681Z,12.53
2018-07-24T15:35:58.488Z,12.00
2018-07-24T15:38:34.692Z,11.47
2018-07-24T15:41:05.236Z,11.10
2018-07-24T15:43:34.043Z,11.40
2018-07-24T15:46:02.621Z,11.67
2018-07-24T15:48:32.570Z,11.10
2018-07-24T15:51:02.184Z,10.93
2018-07-24T15:53:31.063Z,11.30
2018-07-24T15:55:59.788Z,10.97
2018-07-24T16:01:18.048Z,10.90
2018-07-24T16:03:56.786Z,10.93
2018-07-24T16:06:27.812Z,11.50
2018-07-24T16:08:59.719Z,10.63
2018-07-24T16:11:48.806Z,11.10
2018-07-24T16:14:33.070Z,10.90
2018-07-24T16:17:05.030Z,10.80
2018-07-24T16:19:38.722Z,11.43
2018-07-24T16:22:14.310Z,10.63
2018-07-24T16:24:45.132Z,11.03
2018-07-24T16:27:13.678Z,10.83
2018-07-24T16:29:52.271Z,11.30
2018-07-24T16:32:21.074Z,11.33
2018-07-24T16:34:50.061Z,10.60
2018-07-24T16:37:23.810Z,11.00
2018-07-24T16:39:52.858Z,11.43
2018-07-24T16:42:21.822Z,10.93
2018-07-24T16:44:50.497Z,11.53
2018-07-24T16:47:19.162Z,11.73
2018-07-24T16:49:53.581Z,10.67
2018-07-24T16:52:34.660Z,9.97
2018-07-24T16:55:04.317Z,9.87
2018-07-24T16:57:35.626Z,9.63
2018-07-24T17:00:04.680Z,10.03
2018-07-24T17:02:35.171Z,10.73
2018-07-24T17:05:10.346Z,9.83
2018-07-24T17:07:58.425Z,9.97
2018-07-24T17:10:27.182Z,10.07
2018-07-24T17:12:57.074Z,9.50
2018-07-24T17:15:26.659Z,9.70
2018-07-24T17:17:56.341Z,9.83
2018-07-24T17:20:38.883Z,9.90
2018-07-24T17:23:09.841Z,10.27
2018-07-24T17:25:42.943Z,10.13
2018-07-24T17:28:14.108Z,10.60
2018-07-24T17:30:50.724Z,10.53
2018-07-24T17:33:21.421Z,10.40
2018-07-24T17:35:52.335Z,10.07
2018-07-24T17:41:00.371Z,9.60
2018-07-24T17:43:31.577Z,10.33
2018-07-24T17:46:17.473Z,9.53
2018-07-24T17:48:49.383Z,9.43
2018-07-24T17:51:35.897Z,9.53
2018-07-24T17:54:05.814Z,9.80
2018-07-24T17:56:36.114Z,9.20
2018-07-24T17:59:19.143Z,9.40
2018-07-24T18:01:47.917Z,8.47
2018-07-24T18:04:20.605Z,7.27
2018-07-24T18:06:51.658Z,7.40
2018-07-24T18:09:20.487Z,7.33
2018-07-24T18:11:50.808Z,7.67
2018-07-24T18:14:19.632Z,6.60
2018-07-24T18:16:49.769Z,6.83
2018-07-24T18:19:19.352Z,7.00
2018-07-24T18:21:55.743Z,6.30
2018-07-24T18:24:26.635Z,6.17
2018-07-24T18:27:02.211Z,6.60
2018-07-24T18:29:31.919Z,6.23
2018-07-24T18:32:08.691Z,5.97
2018-07-24T18:34:41.549Z,6.00
2018-07-24T18:37:21.000Z,5.40
2018-07-24T18:39:50.792Z,5.57
2018-07-24T18:42:25.188Z,5.77
2018-07-24T18:45:01.561Z,5.57
2018-07-24T18:47:33.533Z,5.33
2018-07-24T18:50:02.148Z,5.27
2018-07-24T18:52:36.917Z,5.30
2018-07-24T18:55:10.190Z,5.50
2018-07-24T18:57:42.072Z,5.50
2018-07-24T19:00:18.576Z,5.40
2018-07-24T19:02:48.030Z,5.10
2018-07-24T19:05:31.278Z,4.93
2018-07-24T19:08:23.483Z,4.97
2018-07-24T19:14:05.196Z,4.50
2018-07-24T19:16:36.146Z,4.57
2018-07-24T19:19:05.866Z,4.97
2018-07-24T19:21:36.939Z,4.90
2018-07-24T19:24:10.248Z,4.77
2018-07-24T19:26:46.348Z,4.67
2018-07-24T19:35:46.264Z,5.10
2018-07-24T19:38:26.763Z,4.40
2018-07-24T19:41:02.942Z,4.40
2018-07-24T19:43:31.720Z,4.40
2018-07-24T19:46:06.868Z,4.77
2018-07-24T19:48:41.019Z,4.77
2018-07-24T19:51:11.916Z,4.70
2018-07-24T19:53:41.555Z,4.80
2018-07-24T19:56:10.291Z,4.47
2018-07-24T19:58:42.639Z,5.30
2018-07-24T20:01:12.387Z,4.40
2018-07-24T20:03:42.463Z,4.83
2018-07-24T20:06:16.871Z,4.30
2018-07-24T20:08:46.696Z,4.50
2018-07-24T20:11:16.617Z,4.30
2018-07-24T20:13:48.846Z,4.23
2018-07-24T20:16:18.867Z,4.43
2018-07-24T20:18:54.475Z,4.33
2018-07-24T20:21:23.223Z,4.20
2018-07-24T20:23:52.127Z,3.90
2018-07-24T20:26:22.690Z,4.27
2018-07-24T20:28:52.798Z,4.20
2018-07-24T20:31:21.317Z,4.20
2018-07-24T20:33:50.130Z,4.20
2018-07-24T20:36:24.075Z,4.23
2018-07-24T20:38:59.213Z,4.30
2018-07-24T20:41:29.962Z,4.67
2018-07-24T20:44:05.013Z,4.10
2018-07-24T20:46:33.413Z,4.57
2018-07-24T20:49:02.512Z,4.30
2018-07-24T20:51:33.615Z,4.70
2018-07-24T20:54:03.669Z,4.27
2018-07-24T20:56:38.644Z,4.10
2018-07-24T20:59:07.298Z,4.30
2018-07-24T21:01:36.140Z,4.10
2018-07-24T21:04:06.771Z,3.53
2018-07-24T21:06:38.536Z,4.00
2018-07-24T21:09:24.040Z,4.13
2018-07-24T21:11:57.732Z,4.07
2018-07-24T21:14:44.469Z,3.90
2018-07-24T21:17:17.555Z,4.20
2018-07-24T21:19:52.689Z,3.93
2018-07-24T21:25:08.396Z,3.80
2018-07-24T21:27:36.832Z,3.80
2018-07-24T21:32:59.669Z,4.10
2018-07-24T21:35:28.378Z,3.83
2018-07-24T21:37:57.097Z,4.07
2018-07-24T21:40:25.727Z,3.93
2018-07-24T21:42:54.708Z,3.97
2018-07-24T21:45:23.134Z,4.10
2018-07-24T21:47:53.635Z,3.90
2018-07-24T21:50:22.416Z,4.10
2018-07-24T21:53:00.855Z,3.90
2018-07-24T21:55:29.535Z,4.03
2018-07-24T21:58:00.090Z,4.37
2018-07-24T22:00:34.860Z,4.07
2018-07-24T22:03:05.702Z,4.20
2018-07-24T22:05:38.051Z,4.97
2018-07-24T22:08:11.825Z,4.20
2018-07-24T22:10:49.872Z,5.07
2018-07-24T22:13:19.595Z,4.20
2018-07-24T22:15:56.224Z,4.43
2018-07-24T22:18:25.806Z,4.00
2018-07-24T22:21:09.787Z,4.33
2018-07-24T22:23:38.357Z,4.33
2018-07-24T22:26:08.817Z,4.10
2018-07-24T22:28:51.864Z,4.10
2018-07-24T22:31:23.627Z,4.00
2018-07-24T22:33:52.015Z,4.27
2018-07-24T22:36:21.765Z,4.43
2018-07-24T22:39:06.583Z,4.10
2018-07-24T22:44:40.499Z,4.13
2018-07-24T22:47:21.177Z,4.33
2018-07-24T22:50:03.730Z,4.23
2018-07-24T22:55:25.077Z,4.07
2018-07-24T22:57:53.737Z,4.33
2018-07-24T23:00:31.919Z,4.27
2018-07-24T23:03:05.529Z,4.50
2018-07-24T23:05:40.381Z,4.77
2018-07-24T23:08:10.936Z,4.67
2018-07-24T23:10:41.440Z,4.53
2018-07-24T23:16:05.006Z,4.30
2018-07-24T23:18:41.019Z,4.93
2018-07-24T23:24:03.591Z,5.30
2018-07-24T23:26:32.262Z,4.90
2018-07-24T23:29:01.891Z,5.03
2018-07-24T23:31:33.389Z,4.63
2018-07-24T23:34:09.336Z,5.20
2018-07-24T23:36:50.014Z,4.80
2018-07-24T23:39:19.624Z,5.13
2018-07-24T23:41:48.120Z,5.27
2018-07-24T23:44:27.127Z,5.40
2018-07-24T23:46:56.754Z,5.40
2018-07-24T23:49:28.612Z,5.60
2018-07-24T23:52:01.233Z,5.90
2018-07-24T23:54:31.764Z,5.30
2018-07-24T23:57:20.394Z,5.37
2018-07-24T23:59:55.538Z,5.10
